Skip to content

GuitarMania

2007.07.07 18:29

종소리

(*.52.62.26) 조회 수 23277 댓글 12
종소리 에요 ~
Comment '12'
  • 땡땡이 2007.07.07 18:41 (*.105.43.23)
    앨범 제작하세요?. 대단합니다.꾸벅.......
  • 좁은길로 2007.07.07 21:55 (*.52.62.26)
    칭찬 감사드립니다~^^
    정말 좋아하는곡
  • ldh2187 2007.07.08 02:25 (*.207.143.198)
    죄송하지만 좁은길로님의 연주는 왠지 헛점이 보여요....ipaco님의 종소리연주를 참고하시길....
  • 좁은길로 2007.07.08 10:51 (*.52.62.26)
    파코님꺼 듣고왔어요

    그러게요 .. 아직연습이 덜되서그런감; 다음에도 조언부탁드립니다
  • 리나 2007.07.09 10:28 (*.110.172.248)
    2% 부족한듯 하지만 테크닉은 충분하네요...
  • 샤콘느1004 2007.07.09 11:41 (*.216.48.105)
    이만하면 훌륭하십니다. 이곡도 즐겨연주하는 인기곡이라 부담되는 곡 아닙니까
  • 아이모레스 2007.07.10 07:20 (*.158.96.220)
    지금도 연주 충분히 좋습니다!!! 하지만... 제목에서 말하듯이... 속도를 조금 늦춰주면 훨씬 더 좋을 것 같은 생각이 듭니다..^^ 허기사 싸운드오브뮤직 영화 마지막 결혼식 장면에서 치는 교회 종소리는 엄청 빠르니 즐겁게 들리긴 합디다만 서두...^^ 그래도... 일반적인 종소리는 조금 더 은은한 게 개인적으로 더 좋은 것 같드라구요...^^ (하지만... 각자 취향이 다른 것이니까요...^^)
  • 김영식 2007.07.10 07:51 (*.30.168.198)
    대단한 테크닉입니다. 단지 점음표를 명확하게 소리만 내시면 더할나위 없을것같습니다.
  • Jason 2007.07.10 13:38 (*.29.94.88)
    님의 기타에 대한 열정....박수..
    테크닉이 음악성을 앞서가는것 같습니다.
    이제 조금 음악성을 내세우시는게......
    지송~ 헷소릴해서......
  • 좁은길로 2007.07.10 15:38 (*.52.62.26)
    음악성이 뭔지를 잘모르겠는데..

    설명해주시면 감사하겠습니다
  • 샤콘느1004 2007.07.10 17:23 (*.216.48.105)
    제가 느낀바로는 좁은길로 님은 테크닉은 상당하십니다.
    그런데 연주라는것이 노래나 마찬가지로 어떤부분은 좀 끌어주고 어떤부분은 당겨주고
    숨죽이고 강하게 지르고 하는 그런거라서..
    우선 내연주의 소리에 귀를 많이 기울이시고 남들이 들을때 곡을 잘 받아들이도록 세심한 마무리에
    신경써주시면 될거 같아요
    너무 급할것도없고 서두를것도없이...
    일단 템포가 안정적이고 중간 중간 쉬시는 부분들이 있다는것은 아직 곡을 덜 연습하신거라봅니다.
    이연주는 그런부분이 거의 없습니다만요 ^^
    한곡의 느낌을 머리와 마음속에 담아두고 기억을하고
    곡을 시작하면서 끝까지 끊어지지않고 술술 노래로 풀어주실능력이 될때까지 연습하셔야
    비로소 여러사람들앞에서 연주할때도 자신있고 일관되게 연주가 가능하지않나싶어요
    중간중간 쉬는 부분은 그부분이 막힌다는것이고 아직 확신이 없는것이고 연습이 덜된것이니까
    그부분만 집중적으로 연습하시는것도 좋다고봅니다. 처음부터끝까지 쭉 하는 연습방법보다는요

    어려운곡을 많이 다루실정도로 기량은 이미 넘치시는거같고
    로망스라도 듣는사람으로하여금 눈물찔끔 흘릴정도로 연주하시는 연습도 필요하다봐요
  • 좁은길로 2007.07.10 18:07 (*.52.62.26)
    그렇군요.. 대단히 감사드립니다.

    로망스로 눈물찔끔찔끔흘링정도를 넘어 훌쩍훌쩍 까지 됬으면 하는바램이..

?

List of Articles
번호 제목 글쓴이 날짜 조회 수
1836 Love Affair 6 2007.06.02 19032
1835 zapateado///rodrigo 13 김은미 2007.06.03 23937
1834 최후의 트레몰로 (리버브효과없는겁니다..;;) 4 file JoDaC 2007.06.09 19130
1833 최후의 트레몰로 입니다 ^^ 32 file JoDaC 2007.06.06 23326
1832 전설 11 file 최병욱 2007.06.06 23246
1831 I believe 13 file orpheus15 2007.06.08 19172
1830 Romance.3번. 10 file 우체국가는길 2007.06.08 23801
1829 Kiss the Rain 이루마 곡 (기타 연주) 44 file 아이모레스 2007.06.12 26595
1828 오 솔레미오 4 file 밀롱가. 2007.06.14 21085
1827 Recuerdos de la Alhambra -F. Tarrega 12 file Jason 2007.06.15 23486
1826 알함브라 다시녹음했습니다~ 14 file 최병욱 2007.06.16 21556
1825 [re] 소르 연습곡 6번-리버브를 넣어보았습니다. 1 file niceplace 2007.06.20 21628
1824 소르 연습곡 6번 8 file niceplace 2007.06.17 21711
1823 Romance.3번. 다시 올려요 6 file 우체국가는길 2007.06.17 25609
1822 뱃노래 - 코스트 12 file fernando 2007.06.19 22290
1821 유키구라모토의 Meditation 18 file 최병욱 2007.06.19 23586
1820 fredric hand의 연습곡 1번 4 file 루하기 2007.06.21 15648
1819 리브라소나티네 3.Fuoco-롤랑디용 27 file MSGr 2007.06.21 28238
1818 바흐 샤콘느 10 file 좁은길로 2007.06.26 23032
1817 쉘부르의 우산 3 file nice guy 2007.06.27 22393
1816 Koyunbaba - C. Domeniconi 25 file 진느 2007.06.27 19700
1815 F. Tarrega,Capricho Arabe 33 file Jason 2007.06.28 22564
1814 Agua e Vinho - Egberto Gismonti 18 file limnz 2007.06.29 21885
1813 BWV1006a 프렐류드 3 file 좁은길로 2007.06.29 21630
1812 이노래어떤가요? Pulo do Gato(P.Bellinati) 15 file MSGr 2007.07.01 26305
1811 L'HYMNE A L'AMOUR / E.PIAF 24 file April 2007.07.04 20759
1810 Kleine Romanze- L. Walker 10 file Jason 2007.07.05 20420
1809 Triste Santuario by Vincent Gomez-슬픈 예배당 17 file Jason 2007.07.05 24287
1808 대성당1악장 8 file 좁은길로 2007.07.05 19968
1807 이루마의 When the love falls 7 file 최병욱 2007.07.07 43318
» 종소리 12 file 좁은길로 2007.07.07 23277
1805 소르의 마적입니다... 19 file 화가 2007.07.08 27602
1804 brahms-theme and variations 20 file 기타레타 2007.07.09 29549
1803 [영상] 엘레지 Elegie (메르츠 Mertz) 3 2007.07.09 22486
1802 이병우 - 달려 18 file 김상욱 2007.07.09 21849
1801 대성당2악장 4 file 좁은길로 2007.07.09 31212
1800 도적의 노래-ibach 연주 16 file 바하의꿈 2007.07.10 22764
1799 하프시 팟사 완주--! 4 file 좁은길로 2007.07.10 21050
1798 핑거스타일- Sun dance (Kotaro Oshio) 7 file 최병욱 2007.07.11 24918
1797 Giuliani-- Rossiniana No.1 (글로빌 아트홀 실황연주) 15 file LDH 2007.07.11 18515
1796 엔커리지먼트-소르 39 file 기타레타 2007.07.11 22640
1795 이 곡 제목이 뭔가요? 3 file -_ - 2007.07.12 18923
1794 헨델의 아리아 23 file 아이모레스 2007.07.12 22548
1793 G선상의 아리아 - J.S.BACH 43 file 기타레타 2007.07.13 23234
1792 이루마의 Kiss the Rain 6 file 최병욱 2007.07.13 22947
1791 Pierre Bensusan - 아도니스의 정원 12 file 찬찬 2007.07.14 24129
1790 Bach - BWV1007 Prelude & Allemande 16 file 김상욱 2007.07.14 21977
1789 Wonderful tonight 43 file - 情 - 2007.07.14 25052
1788 Variation on Theme of Mozart - F.Sor 32 file Jason 2007.07.15 22980
1787 월량대표아적심(月亮代表我的心) 29 이진성 2007.07.19 25193
1786 Fantasia Arabe by Sabicas 22 file Jason 2007.07.22 18849
1785 샤콘느 뒤에뒤부분 7 file 좁은길로 2007.07.23 19569
1784 유키 구라모토의 Lake Louise(새로운 편곡) 17 file 최병욱 2007.07.23 22767
1783 Aria no.1 - F. Kleynjans 11 file bradpitt 2007.07.24 22666
1782 Septiembre (Maximo Diego Pujol) 21 file 라일 2007.07.26 21362
1781 (이중주) Green Sleeves 20 file niceplace 2007.07.27 24162
1780 BWV1006a Prelude 7 file 좁은길로 2007.07.27 25026
1779 A. Piazzolla Quattro Stagioni (부에노스아이레스의 사계) 1. Primavera portend (봄) 8 file sgq 2007.07.27 22585
1778 A. Piazzolla Oblivion(망각) 3 file sgq 2007.07.27 22382
1777 A. Piazzolla Liebertango 1 file sgq 2007.07.27 23301
1776 P. Bellinati Baiao de Gude 서울기타콰르텟 4 file sgq 2007.07.27 23203
1775 사람이 꽃보다 아름다워~~~ 4 야매 2007.07.28 23276
1774 Fur Elise by L. Van Beethoven 62 file Jason 2007.07.28 26615
1773 부탁 김효석 2007.07.29 18587
1772 클레이앙스-로망스1번(이중주) 6 file 기타레타 2007.07.30 19109
1771 Lamento No.2 / F. Kleynjans 12 file 이진성 2007.08.01 20518
1770 The old rugged cross by G. Bennard 10 file Jason 2007.08.02 21955
1769 로망스 no.1(이중주)-끌레앙 16 file 체르니 2007.08.04 31731
1768 Sleeprs, Awake! 눈뜨라부르는소리있어 7 file 좁은길로 2007.08.05 19984
1767 Estudio No.12 / F. Sor 13 file 이진성 2007.08.06 22453
1766 Partners in Praise / 안신영님 편곡 10 file orpheus15 2007.08.07 19507
1765 알베니즈-야자나무 아래에서 13 file 기타레타 2007.08.08 28555
1764 로드리고 // 고풍스런 티엔토 30 file 진느 2007.08.08 25136
1763 Sor Etude#6 10 file 밀롱가. 2007.08.10 20321
1762 Classical Gas/Mason Williams -클래식컬 개스 23 file Jason 2007.08.10 22669
1761 Adelita 2 file sky600 2007.08.12 14777
1760 maria luisa 6 file sky600 2007.08.12 23560
1759 sunflower 14 file 한사랑 2007.08.13 21043
1758 Tango En Skai 11 file 좁은길로 2007.08.13 23903
1757 바흐 // Choral from cantata147 arr.David Russell 31 file 진느 2007.08.14 20409
1756 milonga 6 file 2007.08.15 21596
1755 [동영상] Barrios - Una Limosna por el amor de Dios (최후의 트레몰로) 39 file 김상욱 2007.08.17 27482
1754 텅 빈 놀이터 II by devilous 9 file devilous 2007.08.20 20194
1753 Sleepers, Awake! from Cantata BWV140 9 file April 2007.08.20 20068
1752 Yuichi Watanabe - Morning Dew 5 file 2007.08.21 23184
1751 Falla--ThreeCorneredHat(KimMoonHyung & Chung Sehee) 7 file 바하의꿈 2007.08.21 24659
1750 망고레의 Contemplacion (깊은 그리움) 24 file 아이모레스 2007.08.22 21959
1749 헨델의 대장간변주?^^ Handel--Blacksmith Variations 19 file 바하의꿈 2007.08.23 23606
1748 F. Sor의 인커리지먼트 18 file 바하의꿈 2007.08.24 24674
1747 알함브라궁전의 추억 12 file 정면 2007.08.24 21388
1746 죄송한! 탕고 안 스까이 바이 로랑디앙 (조율 맞춰 재업)ㅠ 8 file buyho 2007.08.26 16669
1745 Stairway to Heaven, Classical/Unplugged version 기악 독주 7 file 2007.08.28 25146
1744 Les Feuilles Mortes (고엽) - Joseph Kosma 20 file 고정석 2007.08.29 21357
1743 Beautiful Dreamer(토스토) 7 file 까치 2007.08.30 23056
1742 줄리아니 기타협주곡 5 file buyho 2007.09.04 20458
1741 가을편지 / 안형수 편곡 15 file orpheus15 2007.09.04 22601
1740 녹음은 어떻게 하나요? 2 소르초이 2007.09.05 19590
1739 TOmmy Emmanuel-Angelina 10 file 좁은길로 2007.09.05 19023
1738 내마음의 보석상자(동영상) 7 야매 2007.09.07 24351
1737 Venus(동영상) 4 야매 2007.09.07 27037
Board Pagination ‹ Prev 1 ... 11 12 13 14 15 16 17 18 19 20 21 22 23 24 25 26 27 28 29 30 ... 39 Next ›
/ 39

나눔글꼴 설치 안내


이 PC에는 나눔글꼴이 설치되어 있지 않습니다.

이 사이트를 나눔글꼴로 보기 위해서는
나눔글꼴을 설치해야 합니다.

설치 취소

Designed by sketchbooks.co.kr / sketchbook5 board skin

Sketchbook5, 스케치북5

Sketchbook5, 스케치북5

Sketchbook5, 스케치북5

Sketchbook5, 스케치북5

Powered by Xpress Engine / Designed by hikaru100

abcXYZ, 세종대왕,1234

abcXYZ, 세종대왕,1234